sensor_id;sensor_type;location;lat;lon;timestamp;P1;durP1;ratioP1;P2;durP2;ratioP2
3274;SDS011;1649;53.672;10.064;2023-02-28T00:00:15;11.43;;;6.33;;
3274;SDS011;1649;53.672;10.064;2023-02-28T00:02:41;11.60;;;6.90;;
3274;SDS011;1649;53.672;10.064;2023-02-28T00:05:08;12.20;;;6.50;;
3274;SDS011;1649;53.672;10.064;2023-02-28T00:07:35;10.03;;;6.17;;
3274;SDS011;1649;53.672;10.064;2023-02-28T00:10:02;12.53;;;6.40;;
3274;SDS011;1649;53.672;10.064;2023-02-28T00:12:28;11.60;;;6.67;;
3274;SDS011;1649;53.672;10.064;2023-02-28T00:14:54;8.70;;;6.23;;
3274;SDS011;1649;53.672;10.064;2023-02-28T00:17:19;9.83;;;6.33;;
3274;SDS011;1649;53.672;10.064;2023-02-28T00:19:49;11.50;;;5.30;;
3274;SDS011;1649;53.672;10.064;2023-02-28T00:22:16;10.77;;;6.00;;
3274;SDS011;1649;53.672;10.064;2023-02-28T00:24:44;15.70;;;6.93;;
3274;SDS011;1649;53.672;10.064;2023-02-28T00:27:10;9.10;;;5.03;;
3274;SDS011;1649;53.672;10.064;2023-02-28T00:29:36;10.77;;;6.67;;
3274;SDS011;1649;53.672;10.064;2023-02-28T00:32:01;9.10;;;5.90;;
3274;SDS011;1649;53.672;10.064;2023-02-28T00:34:27;16.07;;;7.43;;
3274;SDS011;1649;53.672;10.064;2023-02-28T00:36:52;12.80;;;7.63;;
3274;SDS011;1649;53.672;10.064;2023-02-28T00:39:18;11.77;;;7.03;;
3274;SDS011;1649;53.672;10.064;2023-02-28T00:41:43;13.10;;;7.63;;
3274;SDS011;1649;53.672;10.064;2023-02-28T00:44:09;13.80;;;7.10;;
3274;SDS011;1649;53.672;10.064;2023-02-28T00:46:36;14.70;;;7.40;;
3274;SDS011;1649;53.672;10.064;2023-02-28T00:49:01;11.97;;;7.37;;
3274;SDS011;1649;53.672;10.064;2023-02-28T00:51:27;15.13;;;8.00;;
3274;SDS011;1649;53.672;10.064;2023-02-28T00:53:52;10.60;;;7.00;;
3274;SDS011;1649;53.672;10.064;2023-02-28T00:56:18;13.43;;;8.30;;
3274;SDS011;1649;53.672;10.064;2023-02-28T00:58:43;13.90;;;8.10;;
3274;SDS011;1649;53.672;10.064;2023-02-28T01:01:09;11.60;;;7.60;;
3274;SDS011;1649;53.672;10.064;2023-02-28T01:03:34;12.77;;;7.70;;
3274;SDS011;1649;53.672;10.064;2023-02-28T01:06:00;11.93;;;7.00;;
3274;SDS011;1649;53.672;10.064;2023-02-28T01:08:26;10.77;;;6.90;;
3274;SDS011;1649;53.672;10.064;2023-02-28T01:10:52;14.73;;;8.17;;
3274;SDS011;1649;53.672;10.064;2023-02-28T01:13:17;14.73;;;7.40;;
3274;SDS011;1649;53.672;10.064;2023-02-28T01:15:51;15.10;;;8.47;;
3274;SDS011;1649;53.672;10.064;2023-02-28T01:18:20;14.17;;;8.00;;
3274;SDS011;1649;53.672;10.064;2023-02-28T01:20:46;15.70;;;8.43;;
3274;SDS011;1649;53.672;10.064;2023-02-28T01:23:12;15.63;;;8.37;;
3274;SDS011;1649;53.672;10.064;2023-02-28T01:25:38;12.97;;;8.57;;
3274;SDS011;1649;53.672;10.064;2023-02-28T01:28:03;13.60;;;7.77;;
3274;SDS011;1649;53.672;10.064;2023-02-28T01:30:29;12.30;;;8.90;;
3274;SDS011;1649;53.672;10.064;2023-02-28T01:32:55;14.07;;;8.63;;
3274;SDS011;1649;53.672;10.064;2023-02-28T01:35:20;13.03;;;7.70;;
3274;SDS011;1649;53.672;10.064;2023-02-28T01:37:46;17.63;;;9.53;;
3274;SDS011;1649;53.672;10.064;2023-02-28T01:40:12;14.37;;;9.83;;
3274;SDS011;1649;53.672;10.064;2023-02-28T01:42:38;12.10;;;8.67;;
3274;SDS011;1649;53.672;10.064;2023-02-28T01:45:21;13.87;;;9.20;;
3274;SDS011;1649;53.672;10.064;2023-02-28T01:47:52;15.40;;;8.67;;
3274;SDS011;1649;53.672;10.064;2023-02-28T01:50:28;15.13;;;8.73;;
3274;SDS011;1649;53.672;10.064;2023-02-28T01:52:59;16.97;;;9.90;;
3274;SDS011;1649;53.672;10.064;2023-02-28T01:55:27;14.57;;;9.27;;
3274;SDS011;1649;53.672;10.064;2023-02-28T01:57:55;12.77;;;8.87;;
3274;SDS011;1649;53.672;10.064;2023-02-28T02:00:23;14.27;;;8.97;;
3274;SDS011;1649;53.672;10.064;2023-02-28T02:02:53;14.00;;;9.17;;
3274;SDS011;1649;53.672;10.064;2023-02-28T02:05:21;12.13;;;8.70;;
3274;SDS011;1649;53.672;10.064;2023-02-28T02:07:50;15.50;;;9.30;;
3274;SDS011;1649;53.672;10.064;2023-02-28T02:10:33;12.77;;;9.13;;
3274;SDS011;1649;53.672;10.064;2023-02-28T02:15:53;16.17;;;8.60;;
3274;SDS011;1649;53.672;10.064;2023-02-28T02:29:18;15.97;;;9.50;;
3274;SDS011;1649;53.672;10.064;2023-02-28T02:32:14;14.10;;;8.50;;
3274;SDS011;1649;53.672;10.064;2023-02-28T02:35:14;13.83;;;8.00;;
3274;SDS011;1649;53.672;10.064;2023-02-28T02:37:48;14.10;;;8.90;;
3274;SDS011;1649;53.672;10.064;2023-02-28T02:40:54;13.77;;;8.90;;
3274;SDS011;1649;53.672;10.064;2023-02-28T02:43:30;13.93;;;8.50;;
3274;SDS011;1649;53.672;10.064;2023-02-28T02:46:06;14.10;;;9.20;;
3274;SDS011;1649;53.672;10.064;2023-02-28T02:48:37;13.57;;;7.80;;
3274;SDS011;1649;53.672;10.064;2023-02-28T02:51:06;14.83;;;8.20;;
3274;SDS011;1649;53.672;10.064;2023-02-28T02:53:38;15.27;;;8.70;;
3274;SDS011;1649;53.672;10.064;2023-02-28T02:56:09;13.40;;;7.60;;
3274;SDS011;1649;53.672;10.064;2023-02-28T02:58:37;12.17;;;7.27;;
3274;SDS011;1649;53.672;10.064;2023-02-28T03:01:07;11.60;;;7.60;;
3274;SDS011;1649;53.672;10.064;2023-02-28T03:03:39;11.73;;;7.03;;
3274;SDS011;1649;53.672;10.064;2023-02-28T03:06:05;11.43;;;7.00;;
3274;SDS011;1649;53.672;10.064;2023-02-28T03:08:34;12.57;;;7.10;;
3274;SDS011;1649;53.672;10.064;2023-02-28T03:11:03;12.10;;;6.77;;
3274;SDS011;1649;53.672;10.064;2023-02-28T03:13:47;11.33;;;7.97;;
3274;SDS011;1649;53.672;10.064;2023-02-28T03:19:47;10.30;;;7.10;;
3274;SDS011;1649;53.672;10.064;2023-02-28T03:27:40;12.53;;;6.87;;
3274;SDS011;1649;53.672;10.064;2023-02-28T03:30:18;11.90;;;7.20;;
3274;SDS011;1649;53.672;10.064;2023-02-28T03:33:12;10.70;;;6.10;;
3274;SDS011;1649;53.672;10.064;2023-02-28T03:35:43;11.90;;;7.03;;
3274;SDS011;1649;53.672;10.064;2023-02-28T03:38:17;11.20;;;6.77;;
3274;SDS011;1649;53.672;10.064;2023-02-28T03:40:51;14.83;;;6.83;;
3274;SDS011;1649;53.672;10.064;2023-02-28T03:43:27;13.53;;;6.07;;
3274;SDS011;1649;53.672;10.064;2023-02-28T03:45:55;10.23;;;5.70;;
3274;SDS011;1649;53.672;10.064;2023-02-28T03:48:23;13.40;;;7.13;;
3274;SDS011;1649;53.672;10.064;2023-02-28T03:50:54;9.87;;;5.90;;
3274;SDS011;1649;53.672;10.064;2023-02-28T03:53:27;10.40;;;6.07;;
3274;SDS011;1649;53.672;10.064;2023-02-28T03:58:49;11.10;;;6.97;;
3274;SDS011;1649;53.672;10.064;2023-02-28T04:01:30;11.37;;;6.00;;
3274;SDS011;1649;53.672;10.064;2023-02-28T04:04:08;13.07;;;6.20;;
3274;SDS011;1649;53.672;10.064;2023-02-28T04:06:35;11.67;;;6.70;;
3274;SDS011;1649;53.672;10.064;2023-02-28T04:09:00;9.63;;;5.67;;
3274;SDS011;1649;53.672;10.064;2023-02-28T04:11:31;12.37;;;6.37;;
3274;SDS011;1649;53.672;10.064;2023-02-28T04:13:59;12.07;;;6.13;;
3274;SDS011;1649;53.672;10.064;2023-02-28T04:16:25;11.00;;;6.27;;
3274;SDS011;1649;53.672;10.064;2023-02-28T04:18:50;16.60;;;6.30;;
3274;SDS011;1649;53.672;10.064;2023-02-28T04:21:16;8.23;;;5.37;;
3274;SDS011;1649;53.672;10.064;2023-02-28T04:23:45;8.73;;;5.80;;
3274;SDS011;1649;53.672;10.064;2023-02-28T04:26:11;9.97;;;5.47;;
3274;SDS011;1649;53.672;10.064;2023-02-28T04:28:36;9.73;;;5.80;;
3274;SDS011;1649;53.672;10.064;2023-02-28T04:31:03;11.70;;;6.20;;
3274;SDS011;1649;53.672;10.064;2023-02-28T04:33:29;11.37;;;7.03;;
3274;SDS011;1649;53.672;10.064;2023-02-28T04:36:03;10.17;;;6.13;;
3274;SDS011;1649;53.672;10.064;2023-02-28T04:38:34;10.77;;;5.78;;
3274;SDS011;1649;53.672;10.064;2023-02-28T04:41:01;11.33;;;5.77;;
3274;SDS011;1649;53.672;10.064;2023-02-28T04:43:28;11.27;;;6.37;;
3274;SDS011;1649;53.672;10.064;2023-02-28T04:45:55;12.10;;;6.23;;
3274;SDS011;1649;53.672;10.064;2023-02-28T04:48:25;11.27;;;6.07;;
3274;SDS011;1649;53.672;10.064;2023-02-28T04:50:53;13.83;;;6.40;;
3274;SDS011;1649;53.672;10.064;2023-02-28T04:53:19;9.80;;;5.83;;
3274;SDS011;1649;53.672;10.064;2023-02-28T04:55:44;10.20;;;6.30;;
3274;SDS011;1649;53.672;10.064;2023-02-28T04:58:11;11.50;;;5.67;;
3274;SDS011;1649;53.672;10.064;2023-02-28T05:00:37;12.97;;;6.77;;
3274;SDS011;1649;53.672;10.064;2023-02-28T05:03:03;10.23;;;6.40;;
3274;SDS011;1649;53.672;10.064;2023-02-28T05:05:29;13.60;;;5.17;;
3274;SDS011;1649;53.672;10.064;2023-02-28T05:07:54;8.40;;;6.50;;
3274;SDS011;1649;53.672;10.064;2023-02-28T05:10:20;10.53;;;6.90;;
3274;SDS011;1649;53.672;10.064;2023-02-28T05:12:46;10.95;;;6.65;;
3274;SDS011;1649;53.672;10.064;2023-02-28T05:15:13;10.20;;;5.93;;
3274;SDS011;1649;53.672;10.064;2023-02-28T05:17:39;9.33;;;5.83;;
3274;SDS011;1649;53.672;10.064;2023-02-28T05:20:05;9.30;;;5.67;;
3274;SDS011;1649;53.672;10.064;2023-02-28T05:22:32;11.70;;;6.63;;
3274;SDS011;1649;53.672;10.064;2023-02-28T05:24:57;11.73;;;6.20;;
3274;SDS011;1649;53.672;10.064;2023-02-28T05:27:23;10.13;;;6.50;;
3274;SDS011;1649;53.672;10.064;2023-02-28T05:29:48;12.37;;;6.50;;
3274;SDS011;1649;53.672;10.064;2023-02-28T05:32:14;9.50;;;5.90;;
3274;SDS011;1649;53.672;10.064;2023-02-28T05:34:40;12.80;;;6.63;;
3274;SDS011;1649;53.672;10.064;2023-02-28T05:37:06;12.03;;;6.57;;
3274;SDS011;1649;53.672;10.064;2023-02-28T05:39:36;12.82;;;7.25;;
3274;SDS011;1649;53.672;10.064;2023-02-28T05:42:02;11.47;;;7.43;;
3274;SDS011;1649;53.672;10.064;2023-02-28T05:44:28;13.43;;;7.27;;
3274;SDS011;1649;53.672;10.064;2023-02-28T05:46:53;11.10;;;6.73;;
3274;SDS011;1649;53.672;10.064;2023-02-28T05:49:19;12.23;;;6.60;;
3274;SDS011;1649;53.672;10.064;2023-02-28T05:51:44;11.13;;;6.10;;
3274;SDS011;1649;53.672;10.064;2023-02-28T05:54:10;9.73;;;5.90;;
3274;SDS011;1649;53.672;10.064;2023-02-28T05:56:35;9.43;;;6.07;;
3274;SDS011;1649;53.672;10.064;2023-02-28T05:59:03;10.25;;;6.50;;
3274;SDS011;1649;53.672;10.064;2023-02-28T06:01:33;11.63;;;6.57;;
3274;SDS011;1649;53.672;10.064;2023-02-28T06:04:02;16.85;;;6.53;;
3274;SDS011;1649;53.672;10.064;2023-02-28T06:06:29;11.20;;;6.60;;
3274;SDS011;1649;53.672;10.064;2023-02-28T06:08:55;12.17;;;7.13;;
3274;SDS011;1649;53.672;10.064;2023-02-28T06:11:21;9.75;;;6.47;;
3274;SDS011;1649;53.672;10.064;2023-02-28T06:13:53;12.30;;;6.50;;
3274;SDS011;1649;53.672;10.064;2023-02-28T06:16:20;13.70;;;7.37;;
3274;SDS011;1649;53.672;10.064;2023-02-28T06:18:45;10.10;;;6.13;;
3274;SDS011;1649;53.672;10.064;2023-02-28T06:21:11;16.93;;;8.53;;
3274;SDS011;1649;53.672;10.064;2023-02-28T06:23:37;15.02;;;7.85;;
3274;SDS011;1649;53.672;10.064;2023-02-28T06:26:04;13.40;;;7.63;;
3274;SDS011;1649;53.672;10.064;2023-02-28T06:28:29;13.40;;;7.50;;
3274;SDS011;1649;53.672;10.064;2023-02-28T06:30:55;13.97;;;7.70;;
3274;SDS011;1649;53.672;10.064;2023-02-28T06:33:20;14.73;;;7.73;;
3274;SDS011;1649;53.672;10.064;2023-02-28T06:35:47;11.23;;;7.57;;
3274;SDS011;1649;53.672;10.064;2023-02-28T06:38:14;11.80;;;8.27;;
3274;SDS011;1649;53.672;10.064;2023-02-28T06:40:40;17.90;;;8.83;;
3274;SDS011;1649;53.672;10.064;2023-02-28T06:43:05;21.13;;;11.97;;
3274;SDS011;1649;53.672;10.064;2023-02-28T06:45:31;15.40;;;9.57;;
3274;SDS011;1649;53.672;10.064;2023-02-28T06:47:57;14.30;;;8.80;;
3274;SDS011;1649;53.672;10.064;2023-02-28T06:50:23;15.43;;;8.60;;
3274;SDS011;1649;53.672;10.064;2023-02-28T06:52:49;13.40;;;8.40;;
3274;SDS011;1649;53.672;10.064;2023-02-28T06:55:18;16.17;;;9.57;;
3274;SDS011;1649;53.672;10.064;2023-02-28T06:57:44;17.13;;;8.53;;
3274;SDS011;1649;53.672;10.064;2023-02-28T07:00:10;14.50;;;8.27;;
3274;SDS011;1649;53.672;10.064;2023-02-28T07:02:36;20.13;;;11.17;;
3274;SDS011;1649;53.672;10.064;2023-02-28T07:05:03;22.97;;;9.87;;
3274;SDS011;1649;53.672;10.064;2023-02-28T07:07:29;16.83;;;9.77;;
3274;SDS011;1649;53.672;10.064;2023-02-28T07:09:55;19.63;;;10.27;;
3274;SDS011;1649;53.672;10.064;2023-02-28T07:12:21;19.43;;;9.60;;
3274;SDS011;1649;53.672;10.064;2023-02-28T07:14:47;15.30;;;10.00;;
3274;SDS011;1649;53.672;10.064;2023-02-28T07:17:12;17.83;;;9.83;;
3274;SDS011;1649;53.672;10.064;2023-02-28T07:19:38;17.77;;;11.20;;
3274;SDS011;1649;53.672;10.064;2023-02-28T07:22:04;15.90;;;9.77;;
3274;SDS011;1649;53.672;10.064;2023-02-28T07:24:30;17.67;;;10.03;;
3274;SDS011;1649;53.672;10.064;2023-02-28T07:26:55;16.67;;;10.07;;
3274;SDS011;1649;53.672;10.064;2023-02-28T07:29:21;24.17;;;11.60;;
3274;SDS011;1649;53.672;10.064;2023-02-28T07:31:47;18.53;;;10.80;;
3274;SDS011;1649;53.672;10.064;2023-02-28T07:34:13;14.60;;;9.87;;
3274;SDS011;1649;53.672;10.064;2023-02-28T07:36:39;18.20;;;11.10;;
3274;SDS011;1649;53.672;10.064;2023-02-28T07:39:04;17.60;;;10.50;;
3274;SDS011;1649;53.672;10.064;2023-02-28T07:41:30;18.10;;;11.27;;
3274;SDS011;1649;53.672;10.064;2023-02-28T07:43:59;17.63;;;11.90;;
3274;SDS011;1649;53.672;10.064;2023-02-28T07:46:25;16.53;;;10.47;;
3274;SDS011;1649;53.672;10.064;2023-02-28T07:48:51;15.07;;;9.70;;
3274;SDS011;1649;53.672;10.064;2023-02-28T07:51:17;28.87;;;9.50;;
3274;SDS011;1649;53.672;10.064;2023-02-28T07:53:43;15.70;;;9.10;;
3274;SDS011;1649;53.672;10.064;2023-02-28T07:56:09;13.23;;;8.20;;
3274;SDS011;1649;53.672;10.064;2023-02-28T07:58:35;13.77;;;8.50;;
3274;SDS011;1649;53.672;10.064;2023-02-28T08:01:04;13.00;;;7.77;;
3274;SDS011;1649;53.672;10.064;2023-02-28T08:03:34;14.30;;;9.23;;
3274;SDS011;1649;53.672;10.064;2023-02-28T08:06:01;16.23;;;8.23;;
3274;SDS011;1649;53.672;10.064;2023-02-28T08:08:27;12.97;;;8.60;;
3274;SDS011;1649;53.672;10.064;2023-02-28T08:10:58;12.73;;;8.63;;
3274;SDS011;1649;53.672;10.064;2023-02-28T08:13:25;13.37;;;8.90;;
3274;SDS011;1649;53.672;10.064;2023-02-28T08:15:52;11.70;;;7.60;;
3274;SDS011;1649;53.672;10.064;2023-02-28T08:18:18;15.70;;;9.00;;
3274;SDS011;1649;53.672;10.064;2023-02-28T08:20:44;13.30;;;8.63;;
3274;SDS011;1649;53.672;10.064;2023-02-28T08:23:09;13.73;;;8.70;;
3274;SDS011;1649;53.672;10.064;2023-02-28T08:25:35;14.43;;;8.40;;
3274;SDS011;1649;53.672;10.064;2023-02-28T08:28:00;16.57;;;8.63;;
3274;SDS011;1649;53.672;10.064;2023-02-28T08:30:26;12.77;;;8.43;;
3274;SDS011;1649;53.672;10.064;2023-02-28T08:32:51;14.03;;;8.30;;
3274;SDS011;1649;53.672;10.064;2023-02-28T08:35:17;15.20;;;8.03;;
3274;SDS011;1649;53.672;10.064;2023-02-28T08:37:43;14.10;;;7.73;;
3274;SDS011;1649;53.672;10.064;2023-02-28T08:40:08;13.83;;;8.97;;
3274;SDS011;1649;53.672;10.064;2023-02-28T08:42:35;16.47;;;7.20;;
3274;SDS011;1649;53.672;10.064;2023-02-28T08:45:00;11.93;;;7.47;;
3274;SDS011;1649;53.672;10.064;2023-02-28T08:47:26;11.57;;;6.30;;
3274;SDS011;1649;53.672;10.064;2023-02-28T08:49:52;9.83;;;6.00;;
3274;SDS011;1649;53.672;10.064;2023-02-28T08:52:17;10.10;;;5.70;;
3274;SDS011;1649;53.672;10.064;2023-02-28T08:54:43;7.90;;;5.00;;
3274;SDS011;1649;53.672;10.064;2023-02-28T08:57:08;7.47;;;4.57;;
3274;SDS011;1649;53.672;10.064;2023-02-28T08:59:34;9.17;;;4.90;;
3274;SDS011;1649;53.672;10.064;2023-02-28T09:01:59;7.30;;;4.03;;
3274;SDS011;1649;53.672;10.064;2023-02-28T09:04:25;7.97;;;4.30;;
3274;SDS011;1649;53.672;10.064;2023-02-28T09:06:50;8.40;;;4.20;;
3274;SDS011;1649;53.672;10.064;2023-02-28T09:09:16;8.17;;;4.40;;
3274;SDS011;1649;53.672;10.064;2023-02-28T09:11:41;7.10;;;4.80;;
3274;SDS011;1649;53.672;10.064;2023-02-28T09:14:07;7.53;;;4.20;;
3274;SDS011;1649;53.672;10.064;2023-02-28T09:16:33;9.00;;;5.07;;
3274;SDS011;1649;53.672;10.064;2023-02-28T09:18:59;7.80;;;4.70;;
3274;SDS011;1649;53.672;10.064;2023-02-28T09:21:25;10.00;;;4.93;;
3274;SDS011;1649;53.672;10.064;2023-02-28T09:23:51;6.80;;;3.40;;
3274;SDS011;1649;53.672;10.064;2023-02-28T09:26:18;8.70;;;3.40;;
3274;SDS011;1649;53.672;10.064;2023-02-28T09:28:48;6.47;;;3.40;;
3274;SDS011;1649;53.672;10.064;2023-02-28T09:31:16;6.47;;;3.10;;
3274;SDS011;1649;53.672;10.064;2023-02-28T09:33:46;6.20;;;3.20;;
3274;SDS011;1649;53.672;10.064;2023-02-28T09:36:13;7.03;;;3.77;;
3274;SDS011;1649;53.672;10.064;2023-02-28T09:38:38;7.60;;;3.57;;
3274;SDS011;1649;53.672;10.064;2023-02-28T09:41:15;6.80;;;3.40;;
3274;SDS011;1649;53.672;10.064;2023-02-28T09:43:44;5.77;;;3.30;;
3274;SDS011;1649;53.672;10.064;2023-02-28T09:48:59;6.77;;;3.37;;
3274;SDS011;1649;53.672;10.064;2023-02-28T09:51:33;8.23;;;3.50;;
3274;SDS011;1649;53.672;10.064;2023-02-28T09:54:10;6.83;;;3.30;;
3274;SDS011;1649;53.672;10.064;2023-02-28T09:56:43;6.33;;;3.47;;
3274;SDS011;1649;53.672;10.064;2023-02-28T10:04:49;7.40;;;3.27;;
3274;SDS011;1649;53.672;10.064;2023-02-28T10:10:37;6.87;;;3.53;;
3274;SDS011;1649;53.672;10.064;2023-02-28T10:15:55;7.13;;;3.53;;
3274;SDS011;1649;53.672;10.064;2023-02-28T10:18:27;5.63;;;3.13;;
3274;SDS011;1649;53.672;10.064;2023-02-28T10:21:02;6.53;;;2.60;;
3274;SDS011;1649;53.672;10.064;2023-02-28T10:23:28;6.27;;;3.10;;
3274;SDS011;1649;53.672;10.064;2023-02-28T10:26:00;6.50;;;3.40;;
3274;SDS011;1649;53.672;10.064;2023-02-28T10:28:38;6.27;;;3.20;;
3274;SDS011;1649;53.672;10.064;2023-02-28T10:31:04;8.30;;;2.60;;
3274;SDS011;1649;53.672;10.064;2023-02-28T10:33:34;7.20;;;2.70;;
3274;SDS011;1649;53.672;10.064;2023-02-28T10:36:00;6.37;;;3.30;;
3274;SDS011;1649;53.672;10.064;2023-02-28T10:38:34;5.97;;;3.20;;
3274;SDS011;1649;53.672;10.064;2023-02-28T10:41:05;6.73;;;3.30;;
3274;SDS011;1649;53.672;10.064;2023-02-28T10:43:41;5.07;;;2.67;;
3274;SDS011;1649;53.672;10.064;2023-02-28T10:48:37;6.30;;;3.47;;
3274;SDS011;1649;53.672;10.064;2023-02-28T10:51:05;7.87;;;3.17;;
3274;SDS011;1649;53.672;10.064;2023-02-28T10:53:34;6.70;;;2.60;;
3274;SDS011;1649;53.672;10.064;2023-02-28T11:04:16;9.13;;;3.63;;
3274;SDS011;1649;53.672;10.064;2023-02-28T11:06:42;7.37;;;3.40;;
3274;SDS011;1649;53.672;10.064;2023-02-28T11:11:56;5.70;;;3.10;;
3274;SDS011;1649;53.672;10.064;2023-02-28T11:14:26;5.40;;;3.17;;
3274;SDS011;1649;53.672;10.064;2023-02-28T11:16:54;5.10;;;2.93;;
3274;SDS011;1649;53.672;10.064;2023-02-28T11:19:27;8.77;;;3.30;;
3274;SDS011;1649;53.672;10.064;2023-02-28T11:21:59;5.93;;;3.17;;
3274;SDS011;1649;53.672;10.064;2023-02-28T11:24:31;6.37;;;3.63;;
3274;SDS011;1649;53.672;10.064;2023-02-28T11:27:14;6.30;;;3.30;;
3274;SDS011;1649;53.672;10.064;2023-02-28T11:29:57;8.63;;;2.90;;
3274;SDS011;1649;53.672;10.064;2023-02-28T11:32:24;6.80;;;3.20;;
3274;SDS011;1649;53.672;10.064;2023-02-28T11:35:01;4.97;;;2.60;;
3274;SDS011;1649;53.672;10.064;2023-02-28T11:37:29;7.90;;;3.20;;
3274;SDS011;1649;53.672;10.064;2023-02-28T11:39:57;5.77;;;2.80;;
3274;SDS011;1649;53.672;10.064;2023-02-28T11:45:02;6.10;;;2.93;;
3274;SDS011;1649;53.672;10.064;2023-02-28T11:47:38;6.00;;;2.87;;
3274;SDS011;1649;53.672;10.064;2023-02-28T11:52:54;5.50;;;2.97;;
3274;SDS011;1649;53.672;10.064;2023-02-28T11:55:44;5.50;;;2.83;;
3274;SDS011;1649;53.672;10.064;2023-02-28T12:06:48;6.00;;;3.20;;
3274;SDS011;1649;53.672;10.064;2023-02-28T12:09:30;7.47;;;3.37;;
3274;SDS011;1649;53.672;10.064;2023-02-28T12:23:01;7.93;;;2.80;;
3274;SDS011;1649;53.672;10.064;2023-02-28T12:28:34;5.70;;;2.17;;
3274;SDS011;1649;53.672;10.064;2023-02-28T12:31:09;5.60;;;3.03;;
3274;SDS011;1649;53.672;10.064;2023-02-28T12:33:47;6.20;;;3.07;;
3274;SDS011;1649;53.672;10.064;2023-02-28T12:36:17;7.23;;;3.53;;
3274;SDS011;1649;53.672;10.064;2023-02-28T12:39:00;6.37;;;3.30;;
3274;SDS011;1649;53.672;10.064;2023-02-28T12:41:44;6.10;;;2.67;;
3274;SDS011;1649;53.672;10.064;2023-02-28T12:44:17;9.37;;;3.40;;
3274;SDS011;1649;53.672;10.064;2023-02-28T12:46:48;8.13;;;4.80;;
3274;SDS011;1649;53.672;10.064;2023-02-28T12:49:23;5.60;;;3.20;;
3274;SDS011;1649;53.672;10.064;2023-02-28T12:51:56;6.77;;;3.77;;
3274;SDS011;1649;53.672;10.064;2023-02-28T12:54:36;7.33;;;3.13;;
3274;SDS011;1649;53.672;10.064;2023-02-28T12:57:18;6.00;;;3.40;;
3274;SDS011;1649;53.672;10.064;2023-02-28T12:59:54;5.23;;;3.10;;
3274;SDS011;1649;53.672;10.064;2023-02-28T13:02:39;5.30;;;2.77;;
3274;SDS011;1649;53.672;10.064;2023-02-28T13:11:01;8.50;;;3.23;;
3274;SDS011;1649;53.672;10.064;2023-02-28T13:13:29;7.27;;;2.97;;
3274;SDS011;1649;53.672;10.064;2023-02-28T13:16:00;7.77;;;3.47;;
3274;SDS011;1649;53.672;10.064;2023-02-28T13:18:37;6.23;;;3.10;;
3274;SDS011;1649;53.672;10.064;2023-02-28T13:21:06;5.00;;;2.97;;
3274;SDS011;1649;53.672;10.064;2023-02-28T13:23:36;6.33;;;3.30;;
3274;SDS011;1649;53.672;10.064;2023-02-28T13:26:22;5.50;;;3.33;;
3274;SDS011;1649;53.672;10.064;2023-02-28T13:34:33;6.37;;;3.90;;
3274;SDS011;1649;53.672;10.064;2023-02-28T13:40:26;5.90;;;3.40;;
3274;SDS011;1649;53.672;10.064;2023-02-28T13:43:02;6.20;;;3.47;;
3274;SDS011;1649;53.672;10.064;2023-02-28T13:45:32;5.20;;;2.83;;
3274;SDS011;1649;53.672;10.064;2023-02-28T13:48:03;5.80;;;3.03;;
3274;SDS011;1649;53.672;10.064;2023-02-28T13:50:56;5.50;;;2.63;;
3274;SDS011;1649;53.672;10.064;2023-02-28T13:53:29;5.50;;;2.60;;
3274;SDS011;1649;53.672;10.064;2023-02-28T14:01:39;5.00;;;2.80;;
3274;SDS011;1649;53.672;10.064;2023-02-28T14:07:28;4.77;;;2.50;;
3274;SDS011;1649;53.672;10.064;2023-02-28T14:10:04;6.30;;;3.33;;
3274;SDS011;1649;53.672;10.064;2023-02-28T14:17:58;6.83;;;2.27;;
3274;SDS011;1649;53.672;10.064;2023-02-28T14:20:29;4.73;;;2.23;;
3274;SDS011;1649;53.672;10.064;2023-02-28T14:23:03;4.80;;;2.70;;
3274;SDS011;1649;53.672;10.064;2023-02-28T14:25:40;5.93;;;2.80;;
3274;SDS011;1649;53.672;10.064;2023-02-28T14:28:11;4.83;;;2.30;;
3274;SDS011;1649;53.672;10.064;2023-02-28T14:31:15;5.30;;;2.60;;
3274;SDS011;1649;53.672;10.064;2023-02-28T14:36:50;5.63;;;2.20;;
3274;SDS011;1649;53.672;10.064;2023-02-28T14:39:19;5.43;;;2.87;;
3274;SDS011;1649;53.672;10.064;2023-02-28T14:41:46;4.73;;;2.50;;
3274;SDS011;1649;53.672;10.064;2023-02-28T14:44:14;5.03;;;2.50;;
3274;SDS011;1649;53.672;10.064;2023-02-28T14:46:46;4.50;;;2.40;;
3274;SDS011;1649;53.672;10.064;2023-02-28T14:49:25;5.40;;;2.73;;
3274;SDS011;1649;53.672;10.064;2023-02-28T14:54:37;5.30;;;2.97;;
3274;SDS011;1649;53.672;10.064;2023-02-28T14:57:03;5.57;;;2.90;;
3274;SDS011;1649;53.672;10.064;2023-02-28T14:59:31;6.10;;;3.10;;
3274;SDS011;1649;53.672;10.064;2023-02-28T15:02:18;6.50;;;2.83;;
3274;SDS011;1649;53.672;10.064;2023-02-28T15:07:24;4.70;;;2.40;;
3274;SDS011;1649;53.672;10.064;2023-02-28T15:15:40;6.67;;;3.57;;
3274;SDS011;1649;53.672;10.064;2023-02-28T15:20:58;8.10;;;4.80;;
3274;SDS011;1649;53.672;10.064;2023-02-28T15:23:27;8.70;;;4.30;;
3274;SDS011;1649;53.672;10.064;2023-02-28T15:25:52;8.57;;;4.90;;
3274;SDS011;1649;53.672;10.064;2023-02-28T15:28:19;10.80;;;6.13;;
3274;SDS011;1649;53.672;10.064;2023-02-28T15:30:54;9.07;;;5.50;;
3274;SDS011;1649;53.672;10.064;2023-02-28T15:33:23;8.40;;;5.70;;
3274;SDS011;1649;53.672;10.064;2023-02-28T15:35:50;7.17;;;5.07;;
3274;SDS011;1649;53.672;10.064;2023-02-28T15:38:27;9.20;;;5.73;;
3274;SDS011;1649;53.672;10.064;2023-02-28T15:40:55;9.67;;;6.03;;
3274;SDS011;1649;53.672;10.064;2023-02-28T15:45:55;7.67;;;4.87;;
3274;SDS011;1649;53.672;10.064;2023-02-28T15:48:33;8.80;;;5.50;;
3274;SDS011;1649;53.672;10.064;2023-02-28T15:51:09;8.53;;;5.50;;
3274;SDS011;1649;53.672;10.064;2023-02-28T15:53:47;7.60;;;5.20;;
3274;SDS011;1649;53.672;10.064;2023-02-28T15:56:29;7.73;;;5.00;;
3274;SDS011;1649;53.672;10.064;2023-02-28T15:58:59;10.17;;;6.23;;
3274;SDS011;1649;53.672;10.064;2023-02-28T16:01:30;7.57;;;5.07;;
3274;SDS011;1649;53.672;10.064;2023-02-28T16:03:59;8.60;;;5.73;;
3274;SDS011;1649;53.672;10.064;2023-02-28T16:06:32;11.43;;;5.90;;
3274;SDS011;1649;53.672;10.064;2023-02-28T16:09:03;10.90;;;6.90;;
3274;SDS011;1649;53.672;10.064;2023-02-28T16:11:32;9.90;;;5.90;;
3274;SDS011;1649;53.672;10.064;2023-02-28T16:14:00;8.53;;;5.70;;
3274;SDS011;1649;53.672;10.064;2023-02-28T16:16:25;9.43;;;6.13;;
3274;SDS011;1649;53.672;10.064;2023-02-28T16:18:51;11.30;;;5.53;;
3274;SDS011;1649;53.672;10.064;2023-02-28T16:21:17;9.67;;;6.03;;
3274;SDS011;1649;53.672;10.064;2023-02-28T16:23:43;6.97;;;5.10;;
3274;SDS011;1649;53.672;10.064;2023-02-28T16:26:10;9.60;;;6.23;;
3274;SDS011;1649;53.672;10.064;2023-02-28T16:28:47;10.60;;;5.73;;
3274;SDS011;1649;53.672;10.064;2023-02-28T16:31:13;8.73;;;5.53;;
3274;SDS011;1649;53.672;10.064;2023-02-28T16:33:43;14.73;;;5.87;;
3274;SDS011;1649;53.672;10.064;2023-02-28T16:36:14;8.30;;;5.57;;
3274;SDS011;1649;53.672;10.064;2023-02-28T16:38:40;8.07;;;5.20;;
3274;SDS011;1649;53.672;10.064;2023-02-28T16:41:06;7.93;;;5.37;;
3274;SDS011;1649;53.672;10.064;2023-02-28T16:43:34;11.47;;;5.90;;
3274;SDS011;1649;53.672;10.064;2023-02-28T16:46:00;8.70;;;5.77;;
3274;SDS011;1649;53.672;10.064;2023-02-28T16:48:28;8.83;;;5.30;;
3274;SDS011;1649;53.672;10.064;2023-02-28T16:50:55;9.63;;;6.17;;
3274;SDS011;1649;53.672;10.064;2023-02-28T16:53:21;9.67;;;5.33;;
3274;SDS011;1649;53.672;10.064;2023-02-28T16:55:46;9.03;;;5.33;;
3274;SDS011;1649;53.672;10.064;2023-02-28T16:58:15;10.50;;;5.90;;
3274;SDS011;1649;53.672;10.064;2023-02-28T17:00:42;10.03;;;5.50;;
3274;SDS011;1649;53.672;10.064;2023-02-28T17:03:12;9.20;;;5.37;;
3274;SDS011;1649;53.672;10.064;2023-02-28T17:05:46;8.87;;;6.10;;
3274;SDS011;1649;53.672;10.064;2023-02-28T17:08:12;9.60;;;6.60;;
3274;SDS011;1649;53.672;10.064;2023-02-28T17:10:37;9.93;;;6.07;;
3274;SDS011;1649;53.672;10.064;2023-02-28T17:13:03;9.30;;;5.20;;
3274;SDS011;1649;53.672;10.064;2023-02-28T17:15:28;9.50;;;6.30;;